createdAt,value
2022-08-05T00:01:25.247Z,52.65
2022-08-05T00:06:37.255Z,52.93
2022-08-05T00:11:49.671Z,53.03
2022-08-05T00:17:06.119Z,53.12
2022-08-05T00:22:29.434Z,53.50
2022-08-05T00:27:39.522Z,53.94
2022-08-05T00:32:52.492Z,54.02
2022-08-05T00:38:02.077Z,54.16
2022-08-05T00:43:11.196Z,54.16
2022-08-05T00:48:31.277Z,54.60
2022-08-05T00:54:01.456Z,54.79
2022-08-05T00:59:09.132Z,55.03
2022-08-05T01:04:20.306Z,54.96
2022-08-05T01:09:38.585Z,55.30
2022-08-05T01:14:54.828Z,55.26
2022-08-05T01:20:28.751Z,55.42
2022-08-05T01:26:13.342Z,55.52
2022-08-05T01:31:29.697Z,55.73
2022-08-05T01:36:47.010Z,55.96
2022-08-05T01:41:57.652Z,56.09
2022-08-05T01:47:06.874Z,56.08
2022-08-05T01:52:17.958Z,56.25
2022-08-05T01:58:12.356Z,56.75
2022-08-05T02:03:06.258Z,56.41
2022-08-05T02:08:14.549Z,56.59
2022-08-05T02:13:53.084Z,56.64
2022-08-05T02:19:10.843Z,56.99
2022-08-05T02:24:24.997Z,57.22
2022-08-05T02:29:58.691Z,57.21
2022-08-05T02:35:13.867Z,57.46
2022-08-05T02:40:26.103Z,57.46
2022-08-05T02:45:52.623Z,57.67
2022-08-05T02:51:04.405Z,57.90
2022-08-05T02:56:15.743Z,57.71
2022-08-05T03:01:29.299Z,58.03
2022-08-05T03:06:54.483Z,58.04
2022-08-05T03:12:10.191Z,58.49
2022-08-05T03:17:18.866Z,58.49
2022-08-05T03:22:32.302Z,58.65
2022-08-05T03:28:00.093Z,58.82
2022-08-05T03:33:10.608Z,59.17
2022-08-05T03:38:23.894Z,59.87
2022-08-05T03:44:08.335Z,60.61
2022-08-05T03:49:11.527Z,61.12
2022-08-05T03:55:51.093Z,61.17
2022-08-05T04:00:08.267Z,61.74
2022-08-05T04:05:23.252Z,62.19
2022-08-05T04:10:37.754Z,62.28
2022-08-05T04:16:03.114Z,62.57
2022-08-05T04:21:19.933Z,62.63
2022-08-05T04:26:43.505Z,62.67
2022-08-05T04:31:52.553Z,62.75
2022-08-05T04:37:06.058Z,63.03
2022-08-05T04:42:14.608Z,63.29
2022-08-05T04:47:21.926Z,63.48
2022-08-05T04:52:33.347Z,63.88
2022-08-05T04:57:41.650Z,64.26
2022-08-05T05:02:56.033Z,64.45
2022-08-05T05:08:26.421Z,64.28
2022-08-05T05:13:42.953Z,63.84
2022-08-05T05:19:16.546Z,63.19
2022-08-05T05:24:22.280Z,62.38
2022-08-05T05:30:04.250Z,61.58
2022-08-05T05:35:19.970Z,60.74
2022-08-05T05:40:32.052Z,60.22
2022-08-05T05:45:42.640Z,59.55
2022-08-05T05:50:57.084Z,58.77
2022-08-05T05:56:05.431Z,58.36
2022-08-05T06:01:15.151Z,57.86
2022-08-05T06:06:27.737Z,57.36
2022-08-05T06:11:39.858Z,56.75
2022-08-05T06:16:47.889Z,56.31
2022-08-05T06:21:56.298Z,55.94
2022-08-05T06:27:05.750Z,55.72
2022-08-05T06:32:28.862Z,55.40
2022-08-05T06:37:56.082Z,55.34
2022-08-05T06:43:05.898Z,55.13
2022-08-05T06:48:52.981Z,54.82
2022-08-05T06:54:06.856Z,54.22
2022-08-05T06:59:16.365Z,53.54
2022-08-05T07:04:24.687Z,52.96
2022-08-05T07:09:40.405Z,52.46
2022-08-05T07:15:08.745Z,52.13
2022-08-05T07:20:32.887Z,51.99
2022-08-05T07:25:55.167Z,51.61
2022-08-05T07:31:05.889Z,51.42
2022-08-05T07:36:20.709Z,51.35
2022-08-05T07:42:14.318Z,51.04
2022-08-05T07:47:00.220Z,50.83
2022-08-05T07:52:09.083Z,50.63
2022-08-05T07:57:51.164Z,50.19
2022-08-05T08:03:14.598Z,49.91
2022-08-05T08:08:16.057Z,49.58
2022-08-05T08:13:28.958Z,49.46
2022-08-05T08:18:37.656Z,49.33
2022-08-05T08:24:03.873Z,49.06
2022-08-05T08:29:29.449Z,48.43
2022-08-05T08:34:42.556Z,48.21
2022-08-05T08:39:50.756Z,47.69
2022-08-05T08:45:23.751Z,47.34
2022-08-05T08:51:03.918Z,47.09
2022-08-05T08:56:04.801Z,46.36
2022-08-05T09:01:15.856Z,46.00
2022-08-05T09:06:28.137Z,45.73
2022-08-05T09:11:50.830Z,45.47
2022-08-05T09:17:03.394Z,45.28
2022-08-05T09:22:25.078Z,45.11
2022-08-05T09:28:04.857Z,44.98
2022-08-05T09:33:10.073Z,44.40
2022-08-05T09:38:27.513Z,44.17
2022-08-05T09:43:42.220Z,44.05
2022-08-05T09:49:07.264Z,44.01
2022-08-05T09:54:21.208Z,43.80
2022-08-05T09:59:38.079Z,43.93
2022-08-05T10:04:45.683Z,43.69
2022-08-05T10:10:13.918Z,43.57
2022-08-05T10:15:34.430Z,43.22
2022-08-05T10:20:47.719Z,43.35
2022-08-05T10:25:58.550Z,43.55
2022-08-05T10:32:49.186Z,43.34
2022-08-05T10:36:39.506Z,43.06
2022-08-05T10:42:00.749Z,43.00
2022-08-05T10:47:26.457Z,42.95
2022-08-05T10:52:53.675Z,42.56
2022-08-05T10:58:15.796Z,42.42
2022-08-05T11:03:27.290Z,41.72
2022-08-05T11:08:38.155Z,41.87
2022-08-05T11:13:55.059Z,41.77
2022-08-05T11:20:16.555Z,41.44
2022-08-05T11:26:04.343Z,41.32
2022-08-05T11:31:58.870Z,41.05
2022-08-05T11:36:57.735Z,40.66
2022-08-05T11:42:07.237Z,40.68
2022-08-05T11:47:21.556Z,40.65
2022-08-05T11:52:31.987Z,40.41
2022-08-05T11:58:10.422Z,40.05
2022-08-05T12:03:28.764Z,40.04
2022-08-05T12:08:49.993Z,39.93
2022-08-05T12:14:03.999Z,39.91
2022-08-05T12:20:26.825Z,39.98
2022-08-05T12:24:49.681Z,39.84
2022-08-05T12:30:06.813Z,39.74
2022-08-05T12:35:16.800Z,39.51
2022-08-05T12:40:33.431Z,39.46
2022-08-05T12:45:52.186Z,39.30
2022-08-05T12:52:10.273Z,39.12
2022-08-05T12:56:53.280Z,38.92
2022-08-05T13:02:07.221Z,38.97
2022-08-05T13:07:41.374Z,39.00
2022-08-05T13:12:57.461Z,39.13
2022-08-05T13:18:07.862Z,39.01
2022-08-05T13:23:18.218Z,39.18
2022-08-05T13:28:32.475Z,39.21
2022-08-05T13:34:21.584Z,39.01
2022-08-05T13:40:13.877Z,38.93
2022-08-05T13:44:42.020Z,38.96
2022-08-05T13:49:55.569Z,38.90
2022-08-05T13:55:07.649Z,38.76
2022-08-05T14:00:27.194Z,38.68
2022-08-05T14:06:24.529Z,38.58
2022-08-05T14:11:20.952Z,38.38
2022-08-05T14:16:31.353Z,38.39
2022-08-05T14:22:09.659Z,38.35
2022-08-05T14:27:18.315Z,38.03
2022-08-05T14:32:28.261Z,37.73
2022-08-05T14:37:45.650Z,37.84
2022-08-05T14:42:58.641Z,37.68
2022-08-05T14:48:08.662Z,37.79
2022-08-05T14:53:17.960Z,37.80
2022-08-05T14:58:26.497Z,37.66
2022-08-05T15:03:39.146Z,37.50
2022-08-05T15:08:57.749Z,37.74
2022-08-05T15:14:09.472Z,37.93
2022-08-05T15:19:23.749Z,38.07
2022-08-05T15:24:33.947Z,38.31
2022-08-05T15:29:49.225Z,38.37
2022-08-05T15:34:57.542Z,38.42
2022-08-05T15:40:58.699Z,38.18
2022-08-05T15:45:38.378Z,38.10
2022-08-05T15:50:51.007Z,37.96
2022-08-05T15:56:04.252Z,37.78
2022-08-05T16:01:17.927Z,37.90
2022-08-05T16:06:26.373Z,37.73
2022-08-05T16:11:40.095Z,37.91
2022-08-05T16:16:52.521Z,38.21
2022-08-05T16:22:03.333Z,38.27
2022-08-05T16:27:16.003Z,38.32
2022-08-05T16:32:29.105Z,38.68
2022-08-05T16:38:16.767Z,38.75
2022-08-05T16:43:09.744Z,38.75
2022-08-05T16:48:25.283Z,38.68
2022-08-05T16:54:06.201Z,38.87
2022-08-05T16:59:07.677Z,39.02
2022-08-05T17:04:18.624Z,38.98
2022-08-05T17:09:27.429Z,38.92
2022-08-05T17:14:38.402Z,38.87
2022-08-05T17:19:55.499Z,38.93
2022-08-05T17:25:09.714Z,39.00
2022-08-05T17:30:32.318Z,38.98
2022-08-05T17:36:08.050Z,39.12
2022-08-05T17:41:11.697Z,39.27
2022-08-05T17:46:38.907Z,39.38
2022-08-05T17:51:50.100Z,39.55
2022-08-05T17:56:58.711Z,39.82
2022-08-05T18:02:10.753Z,39.84
2022-08-05T18:07:19.418Z,40.07
2022-08-05T18:12:28.804Z,40.26
2022-08-05T18:17:59.491Z,40.48
2022-08-05T18:23:09.311Z,40.58
2022-08-05T18:28:21.850Z,41.07
2022-08-05T18:33:46.570Z,41.32
2022-08-05T18:38:56.711Z,41.74
2022-08-05T18:44:07.986Z,42.04
2022-08-05T18:49:56.813Z,42.17
2022-08-05T18:55:10.291Z,42.62
2022-08-05T19:00:20.883Z,42.90
2022-08-05T19:06:12.092Z,43.25
2022-08-05T19:11:07.107Z,43.71
2022-08-05T19:16:25.447Z,43.70
2022-08-05T19:21:40.114Z,43.91
2022-08-05T19:26:54.904Z,44.15
2022-08-05T19:32:08.653Z,44.29
2022-08-05T19:37:20.937Z,44.53
2022-08-05T19:42:35.903Z,44.96
2022-08-05T19:47:45.403Z,45.22
2022-08-05T19:52:54.366Z,45.18
2022-08-05T19:58:19.614Z,45.52
2022-08-05T20:03:38.714Z,45.86
2022-08-05T20:08:50.206Z,46.13
2022-08-05T20:14:12.809Z,46.40
2022-08-05T20:19:35.948Z,46.59
2022-08-05T20:24:46.080Z,47.01
2022-08-05T20:29:58.282Z,47.50
2022-08-05T20:35:08.614Z,47.63
2022-08-05T20:40:18.372Z,47.86
2022-08-05T20:45:56.088Z,48.01
2022-08-05T20:50:55.175Z,48.44
2022-08-05T20:56:09.013Z,48.78
2022-08-05T21:01:18.831Z,48.98
2022-08-05T21:06:46.144Z,49.44
2022-08-05T21:12:10.093Z,49.65
2022-08-05T21:17:20.576Z,50.00
2022-08-05T21:22:30.012Z,50.17
2022-08-05T21:27:39.120Z,50.31
2022-08-05T21:32:47.234Z,50.45
2022-08-05T21:37:55.714Z,50.69
2022-08-05T21:43:05.527Z,50.84
2022-08-05T21:48:14.262Z,51.11
2022-08-05T21:53:23.246Z,51.32
2022-08-05T21:58:36.594Z,51.46
2022-08-05T22:03:48.625Z,51.63
2022-08-05T22:09:00.524Z,51.81
2022-08-05T22:14:34.217Z,51.79
2022-08-05T22:20:00.332Z,51.90
2022-08-05T22:25:31.097Z,51.95
2022-08-05T22:30:56.728Z,51.95
2022-08-05T22:36:07.703Z,51.84
2022-08-05T22:41:16.590Z,51.99
2022-08-05T22:46:45.650Z,51.93
2022-08-05T22:52:05.217Z,52.00
2022-08-05T22:57:16.781Z,52.58
2022-08-05T23:02:29.509Z,52.84
2022-08-05T23:07:44.997Z,52.99
2022-08-05T23:12:57.705Z,53.38
2022-08-05T23:18:15.846Z,53.45
2022-08-05T23:23:25.160Z,53.63
2022-08-05T23:28:39.165Z,53.71
2022-08-05T23:34:05.217Z,53.93
2022-08-05T23:39:23.704Z,53.96
2022-08-05T23:44:42.567Z,54.21
2022-08-05T23:49:55.468Z,54.28
2022-08-05T23:55:09.015Z,54.52
